Time;durP1;ratioP1;P1;durP2;ratioP2;P2;SDS_P1;SDS_P2;PMS_P1;PMS_P2;Temp;Humidity;BMP_temperature;BMP_pressure;BME280_temperature;BME280_humidity;BME280_pressure;Samples;Min_cycle;Max_cycle;Signal;HPM_P1;HPM_P2
2021/01/21 00:01:48;;;;;;;4.40;2.38;;;6.90;61.80;;;;;;5103553;28;20103;-64
2021/01/21 00:04:13;;;;;;;4.80;2.15;;;6.90;61.90;;;;;;5110055;28;20067;-63
2021/01/21 00:06:40;;;;;;;4.22;2.13;;;6.90;61.90;;;;;;5097153;28;20060;-63
2021/01/21 00:09:06;;;;;;;3.53;2.45;;;7.00;61.60;;;;;;5092549;28;20409;-64
2021/01/21 00:11:32;;;;;;;11.07;1.88;;;6.90;61.90;;;;;;5108000;28;20078;-64
2021/01/21 00:13:58;;;;;;;2.78;2.03;;;6.80;61.90;;;;;;5102761;28;20032;-63
2021/01/21 00:16:24;;;;;;;4.00;1.75;;;6.90;62.10;;;;;;5095697;28;20035;-63
2021/01/21 00:18:49;;;;;;;3.90;1.92;;;6.80;62.00;;;;;;5100641;28;20026;-65
2021/01/21 00:21:15;;;;;;;3.90;1.88;;;6.80;62.90;;;;;;5111472;28;20038;-63
2021/01/21 00:23:41;;;;;;;10.00;2.70;;;6.80;62.50;;;;;;5101859;28;20408;-63
2021/01/21 00:26:07;;;;;;;6.93;2.30;;;6.70;62.90;;;;;;5101964;28;20373;-63
2021/01/21 00:28:32;;;;;;;5.75;2.17;;;6.70;63.00;;;;;;5098006;28;20099;-64
2021/01/21 00:30:58;;;;;;;4.40;2.55;;;6.60;62.90;;;;;;5106879;28;20079;-64
2021/01/21 00:33:24;;;;;;;3.75;2.55;;;6.60;63.50;;;;;;5097669;28;20028;-65
2021/01/21 00:35:50;;;;;;;4.43;2.67;;;6.50;63.90;;;;;;5087815;28;20039;-66
2021/01/21 00:38:15;;;;;;;4.95;2.47;;;6.50;64.00;;;;;;5090535;28;20028;-63
2021/01/21 00:40:41;;;;;;;8.02;2.92;;;6.40;64.20;;;;;;5102907;28;20102;-63
2021/01/21 00:43:07;;;;;;;4.40;2.55;;;6.30;64.50;;;;;;5100227;28;20027;-63
2021/01/21 00:45:32;;;;;;;4.47;2.80;;;6.30;64.50;;;;;;5111064;28;20030;-63
2021/01/21 00:47:58;;;;;;;3.28;2.30;;;6.20;64.80;;;;;;5102218;28;20059;-63
2021/01/21 00:50:23;;;;;;;3.95;2.60;;;6.20;64.80;;;;;;5096826;28;20441;-63
2021/01/21 00:52:49;;;;;;;4.95;2.60;;;6.10;65.40;;;;;;5100990;28;20070;-65
2021/01/21 00:55:15;;;;;;;4.88;2.08;;;6.10;66.50;;;;;;5111051;28;20028;-63
2021/01/21 00:57:40;;;;;;;4.70;2.63;;;6.00;66.10;;;;;;5103807;28;20047;-63
2021/01/21 01:00:08;;;;;;;3.83;2.60;;;5.90;67.50;;;;;;5102548;28;20396;-64
2021/01/21 01:02:34;;;;;;;5.40;2.80;;;5.80;68.70;;;;;;5103224;28;20036;-64
2021/01/21 01:05:00;;;;;;;4.65;2.92;;;5.80;69.40;;;;;;5107950;28;20031;-63
2021/01/21 01:07:26;;;;;;;7.13;3.60;;;5.70;70.10;;;;;;5105663;28;20148;-63
2021/01/21 01:09:52;;;;;;;6.80;3.42;;;5.60;70.70;;;;;;5090434;28;20412;-65
2021/01/21 01:12:18;;;;;;;9.10;5.05;;;5.50;71.80;;;;;;5091708;28;20030;-63
2021/01/21 01:14:43;;;;;;;8.55;4.30;;;5.40;71.90;;;;;;5105389;28;20088;-62
2021/01/21 01:17:09;;;;;;;7.20;3.92;;;5.40;72.40;;;;;;5108094;28;20038;-63
2021/01/21 01:19:35;;;;;;;7.00;4.40;;;5.30;72.80;;;;;;5093810;28;20047;-62
2021/01/21 01:22:00;;;;;;;10.68;4.25;;;5.20;73.60;;;;;;5110129;28;20130;-61
2021/01/21 01:24:26;;;;;;;9.75;4.72;;;5.20;74.20;;;;;;5102083;28;20032;-62
2021/01/21 01:26:52;;;;;;;6.35;2.92;;;5.20;74.10;;;;;;5092378;28;20024;-64
2021/01/21 01:29:19;;;;;;;7.22;2.08;;;5.10;70.80;;;;;;5110590;28;20392;-62
2021/01/21 01:31:45;;;;;;;6.32;1.70;;;5.30;67.90;;;;;;5093902;28;20078;-62
2021/01/21 01:34:10;;;;;;;3.13;1.92;;;5.70;65.00;;;;;;5104261;28;20777;-63
2021/01/21 01:36:36;;;;;;;2.92;1.50;;;6.00;63.70;;;;;;5105605;28;20077;-63
2021/01/21 01:39:02;;;;;;;3.70;1.77;;;6.20;62.90;;;;;;5106547;28;20032;-63
2021/01/21 01:41:28;;;;;;;2.38;1.42;;;6.50;61.80;;;;;;5104399;28;20032;-63
2021/01/21 01:43:54;;;;;;;4.07;1.67;;;6.70;61.30;;;;;;5097885;28;20361;-65
2021/01/21 01:46:20;;;;;;;2.83;1.60;;;6.80;60.70;;;;;;5093419;28;20032;-63
2021/01/21 01:48:45;;;;;;;2.50;1.50;;;6.90;60.30;;;;;;5107081;28;20464;-63
2021/01/21 01:51:11;;;;;;;4.90;2.13;;;7.10;60.00;;;;;;5098601;28;20673;-66
2021/01/21 01:53:37;;;;;;;3.08;1.58;;;7.10;60.10;;;;;;5099872;28;20031;-63
2021/01/21 01:56:03;;;;;;;1.92;1.42;;;7.10;59.30;;;;;;5109473;28;20028;-62
2021/01/21 01:58:32;;;;;;;2.17;1.30;;;7.20;59.00;;;;;;5109828;28;20028;-62
2021/01/21 02:01:00;;;;;;;2.78;1.67;;;7.30;58.70;;;;;;5101848;28;20392;-64
2021/01/21 02:03:25;;;;;;;4.60;1.80;;;7.30;58.30;;;;;;5102778;28;20056;-63
2021/01/21 02:05:52;;;;;;;3.25;1.70;;;7.40;58.40;;;;;;5106984;28;20051;-65
2021/01/21 02:08:22;;;;;;;9.27;1.95;;;7.40;58.10;;;;;;5105960;28;20051;-63
2021/01/21 02:10:48;;;;;;;5.97;1.73;;;7.40;58.10;;;;;;5110127;28;20039;-63
2021/01/21 02:13:24;;;;;;;7.80;1.60;;;7.40;58.20;;;;;;5099730;28;20460;-65
2021/01/21 02:16:17;;;;;;;4.10;1.60;;;7.50;58.00;;;;;;5096259;28;20035;-65
2021/01/21 02:18:57;;;;;;;4.75;1.65;;;7.50;58.60;;;;;;5105657;28;20123;-65
2021/01/21 02:21:52;;;;;;;4.78;2.42;;;7.50;58.90;;;;;;5105694;28;20028;-63
2021/01/21 02:24:37;;;;;;;6.50;1.60;;;7.40;59.30;;;;;;5098293;28;20597;-64
2021/01/21 02:27:06;;;;;;;4.70;1.80;;;7.40;59.10;;;;;;5111706;28;20476;-63
2021/01/21 02:29:41;;;;;;;3.05;1.77;;;7.30;60.30;;;;;;5098117;28;20369;-63
2021/01/21 02:32:06;;;;;;;7.03;2.10;;;7.30;61.20;;;;;;5095537;28;20051;-64
2021/01/21 02:35:00;;;;;;;3.85;1.90;;;7.20;62.20;;;;;;5101652;28;20135;-64
2021/01/21 02:37:28;;;;;;;3.25;1.80;;;7.10;62.20;;;;;;5095947;28;20420;-64
2021/01/21 02:39:56;;;;;;;3.28;1.73;;;7.00;62.40;;;;;;5097024;28;20415;-65
2021/01/21 02:42:22;;;;;;;4.00;2.10;;;7.00;61.80;;;;;;5104624;28;20028;-64
2021/01/21 02:44:48;;;;;;;4.18;1.90;;;7.00;62.50;;;;;;5105953;28;20088;-66
2021/01/21 02:47:16;;;;;;;4.43;1.80;;;6.90;62.50;;;;;;5110130;28;20028;-63
2021/01/21 02:49:42;;;;;;;3.30;1.80;;;6.90;63.30;;;;;;5104132;28;20054;-63
2021/01/21 02:52:32;;;;;;;4.75;1.88;;;6.90;63.60;;;;;;5108692;28;20097;-63
2021/01/21 02:55:19;;;;;;;2.67;1.70;;;6.90;64.30;;;;;;5112403;28;20455;-64
2021/01/21 02:57:54;;;;;;;3.67;2.10;;;6.90;64.50;;;;;;5104937;27;20028;-63
2021/01/21 03:00:21;;;;;;;3.42;1.83;;;6.90;63.90;;;;;;5113281;27;20028;-64
2021/01/21 03:02:50;;;;;;;1.77;1.45;;;7.10;62.50;;;;;;5105130;28;20058;-63
2021/01/21 03:05:18;;;;;;;4.32;1.83;;;7.20;60.90;;;;;;5111801;28;20027;-63
2021/01/21 03:07:45;;;;;;;2.72;1.45;;;7.40;59.60;;;;;;5113685;28;20050;-64
2021/01/21 03:10:16;;;;;;;4.18;1.90;;;7.50;59.50;;;;;;5101009;28;20122;-63
2021/01/21 03:12:41;;;;;;;4.57;1.60;;;7.60;58.10;;;;;;5093413;28;20023;-63
2021/01/21 03:15:08;;;;;;;3.17;1.50;;;7.70;57.80;;;;;;5104099;28;20460;-64
2021/01/21 03:17:33;;;;;;;2.65;1.30;;;7.80;56.30;;;;;;5113689;28;20072;-63
2021/01/21 03:19:59;;;;;;;2.58;1.10;;;8.00;55.20;;;;;;5112103;28;20039;-63
2021/01/21 03:22:25;;;;;;;2.17;1.15;;;8.10;54.70;;;;;;5105287;28;20038;-63
2021/01/21 03:24:50;;;;;;;1.38;0.85;;;8.10;54.10;;;;;;5104172;28;20449;-65
2021/01/21 03:27:16;;;;;;;1.80;0.95;;;8.30;53.80;;;;;;5104411;28;20530;-63
2021/01/21 03:29:42;;;;;;;2.00;0.80;;;8.30;52.70;;;;;;5109892;28;20043;-64
2021/01/21 03:32:08;;;;;;;3.90;1.17;;;8.30;53.20;;;;;;5111627;28;20039;-63
2021/01/21 03:34:33;;;;;;;1.98;0.93;;;8.40;52.60;;;;;;5103810;28;20072;-63
2021/01/21 03:36:59;;;;;;;8.05;1.35;;;8.40;52.50;;;;;;5096658;28;20034;-64
2021/01/21 03:39:25;;;;;;;6.55;1.73;;;8.40;52.80;;;;;;5106574;28;20404;-63
2021/01/21 03:41:51;;;;;;;4.15;0.80;;;8.40;53.00;;;;;;5101538;28;20031;-66
2021/01/21 03:44:18;;;;;;;4.85;1.42;;;8.40;52.70;;;;;;5109390;28;20024;-64
2021/01/21 03:46:44;;;;;;;8.40;1.38;;;8.40;53.40;;;;;;5098104;28;20495;-63
2021/01/21 03:49:10;;;;;;;8.23;1.27;;;8.40;53.10;;;;;;5106939;28;20032;-63
2021/01/21 03:51:36;;;;;;;5.10;1.20;;;8.40;53.30;;;;;;5103805;28;20506;-64
2021/01/21 03:54:01;;;;;;;5.32;0.88;;;8.40;52.80;;;;;;5087847;28;20082;-63
2021/01/21 03:56:27;;;;;;;6.30;1.00;;;8.50;52.20;;;;;;5085401;28;20387;-63
2021/01/21 03:58:52;;;;;;;2.13;0.90;;;8.50;52.00;;;;;;5102754;28;20038;-64
2021/01/21 04:01:18;;;;;;;1.52;0.80;;;8.60;52.10;;;;;;5110670;28;20115;-63
2021/01/21 04:03:44;;;;;;;5.05;1.02;;;8.60;51.90;;;;;;5111424;28;20040;-64
2021/01/21 04:06:10;;;;;;;2.15;0.80;;;8.60;51.90;;;;;;5111513;28;20031;-63
2021/01/21 04:08:36;;;;;;;4.85;1.00;;;8.60;51.80;;;;;;5112272;28;20035;-65
2021/01/21 04:11:01;;;;;;;1.67;0.80;;;8.50;52.00;;;;;;5086247;28;20055;-63
2021/01/21 04:13:27;;;;;;;3.58;0.90;;;8.60;52.00;;;;;;5109700;28;20024;-65
2021/01/21 04:15:53;;;;;;;2.25;0.80;;;8.50;52.30;;;;;;5111009;28;20388;-66
2021/01/21 04:18:18;;;;;;;2.03;0.98;;;8.50;52.10;;;;;;5085124;28;20032;-63
2021/01/21 04:20:44;;;;;;;2.80;0.90;;;8.60;51.90;;;;;;5090316;28;20031;-64
2021/01/21 04:23:10;;;;;;;2.40;0.63;;;8.60;52.20;;;;;;5090555;28;20717;-63
2021/01/21 04:25:36;;;;;;;4.93;0.90;;;8.60;52.10;;;;;;5090260;28;20028;-63
2021/01/21 04:28:03;;;;;;;5.45;0.77;;;8.60;52.00;;;;;;5090540;28;20028;-63
2021/01/21 04:30:29;;;;;;;2.47;0.73;;;8.50;52.20;;;;;;5092123;28;20051;-64
2021/01/21 04:32:55;;;;;;;4.05;0.90;;;8.60;52.20;;;;;;5089225;28;20365;-63
2021/01/21 04:35:20;;;;;;;3.25;1.08;;;8.50;52.60;;;;;;5091117;28;20023;-63
2021/01/21 04:37:46;;;;;;;1.05;0.75;;;8.50;52.80;;;;;;5090609;28;20031;-63
2021/01/21 04:40:12;;;;;;;5.00;0.65;;;8.40;52.90;;;;;;5092035;28;20177;-62
2021/01/21 04:42:38;;;;;;;1.38;1.00;;;8.40;52.40;;;;;;5095529;28;20059;-64
2021/01/21 04:45:06;;;;;;;4.95;0.75;;;8.50;52.70;;;;;;5089949;28;20451;-63
2021/01/21 04:47:32;;;;;;;4.95;0.80;;;8.50;52.50;;;;;;5092486;28;20111;-64
2021/01/21 04:49:59;;;;;;;4.40;0.57;;;8.60;52.40;;;;;;5088651;28;20042;-63
2021/01/21 04:52:28;;;;;;;2.17;0.73;;;8.60;52.30;;;;;;5090399;28;20032;-62
2021/01/21 04:55:02;;;;;;;5.65;0.75;;;8.70;52.30;;;;;;5089564;28;20463;-63
2021/01/21 04:57:52;;;;;;;2.40;0.60;;;8.70;52.10;;;;;;5087601;28;20459;-62
2021/01/21 05:00:18;;;;;;;3.17;0.55;;;8.80;51.40;;;;;;5091874;28;20028;-62
2021/01/21 05:02:45;;;;;;;2.65;0.60;;;8.90;51.00;;;;;;5089723;28;20119;-63
2021/01/21 05:05:11;;;;;;;0.50;0.40;;;9.10;50.40;;;;;;5089640;28;20200;-63
2021/01/21 05:07:38;;;;;;;1.40;0.57;;;9.20;49.80;;;;;;5089995;28;20024;-63
2021/01/21 05:10:08;;;;;;;2.28;0.50;;;9.40;49.20;;;;;;5089655;28;20498;-63
2021/01/21 05:12:35;;;;;;;1.77;0.50;;;9.50;49.30;;;;;;5092211;28;20101;-63
2021/01/21 05:15:01;;;;;;;1.80;0.32;;;9.50;49.00;;;;;;5087524;28;20028;-64
2021/01/21 05:17:27;;;;;;;1.63;0.60;;;9.60;48.70;;;;;;5091063;28;20020;-64
2021/01/21 05:19:54;;;;;;;2.47;0.60;;;9.70;48.70;;;;;;5089746;28;20039;-65
2021/01/21 05:22:20;;;;;;;1.95;0.80;;;9.70;48.50;;;;;;5094473;28;20020;-62
2021/01/21 05:24:46;;;;;;;2.45;0.40;;;9.70;48.80;;;;;;5089684;28;20291;-61
2021/01/21 05:27:16;;;;;;;3.78;0.50;;;9.80;48.50;;;;;;5093511;28;20786;-62
2021/01/21 05:29:46;;;;;;;5.63;0.98;;;9.70;48.70;;;;;;5088871;28;20117;-64
2021/01/21 05:32:16;;;;;;;2.33;0.57;;;9.70;48.60;;;;;;5088541;28;20047;-62
2021/01/21 05:34:46;;;;;;;1.00;0.40;;;9.70;48.70;;;;;;5092555;28;20398;-62
2021/01/21 05:37:13;;;;;;;9.10;0.70;;;9.70;48.70;;;;;;5092371;28;20023;-62
2021/01/21 05:39:41;;;;;;;3.50;0.70;;;9.70;48.80;;;;;;5088194;28;20471;-62
2021/01/21 05:42:07;;;;;;;2.90;0.75;;;9.70;49.00;;;;;;5091170;28;20031;-62
2021/01/21 05:44:33;;;;;;;3.13;1.38;;;9.60;49.10;;;;;;5089550;28;20028;-63
2021/01/21 05:47:09;;;;;;;5.63;1.00;;;9.70;48.90;;;;;;5088913;28;20024;-62
2021/01/21 05:49:36;;;;;;;2.70;0.80;;;9.70;48.70;;;;;;5094155;28;20123;-62
2021/01/21 05:52:02;;;;;;;1.95;0.50;;;9.70;48.90;;;;;;5112338;27;20039;-62
2021/01/21 05:54:29;;;;;;;3.80;0.80;;;9.80;48.40;;;;;;5105405;28;20028;-62
2021/01/21 05:56:56;;;;;;;0.82;0.50;;;9.90;48.10;;;;;;5112313;28;20028;-62
2021/01/21 05:59:24;;;;;;;0.63;0.40;;;9.90;48.40;;;;;;5097358;28;20043;-62
2021/01/21 06:01:52;;;;;;;2.80;0.40;;;9.90;48.40;;;;;;5094926;28;20094;-66
2021/01/21 06:04:18;;;;;;;3.95;1.00;;;9.90;48.20;;;;;;5096452;28;20016;-63
2021/01/21 06:06:45;;;;;;;5.43;0.80;;;9.90;47.90;;;;;;5093694;28;20704;-63
2021/01/21 06:09:15;;;;;;;2.10;0.50;;;10.00;47.90;;;;;;5096634;27;20102;-64
2021/01/21 06:11:44;;;;;;;4.50;0.73;;;10.00;48.10;;;;;;5092593;28;20158;-64
2021/01/21 06:14:13;;;;;;;3.85;0.57;;;10.00;47.40;;;;;;5095361;28;20461;-63
2021/01/21 06:16:40;;;;;;;1.85;0.50;;;10.10;46.90;;;;;;5092094;28;20020;-63
2021/01/21 06:19:06;;;;;;;0.40;0.20;;;10.10;46.90;;;;;;5092320;28;20536;-63
2021/01/21 06:21:35;;;;;;;1.50;0.60;;;10.10;47.10;;;;;;5092910;28;20110;-63
2021/01/21 06:24:03;;;;;;;0.60;0.32;;;10.10;47.10;;;;;;5089683;28;20376;-61
2021/01/21 06:26:41;;;;;;;1.80;0.50;;;10.10;47.20;;;;;;5091428;28;20139;-62
2021/01/21 06:29:10;;;;;;;2.08;0.45;;;10.10;47.00;;;;;;5090764;28;20051;-63
2021/01/21 06:31:36;;;;;;;3.07;0.70;;;10.20;46.90;;;;;;5092644;28;20052;-64
2021/01/21 06:34:05;;;;;;;1.48;0.85;;;10.10;46.80;;;;;;5089723;28;20035;-63
2021/01/21 06:36:36;;;;;;;3.80;0.60;;;10.10;46.90;;;;;;5092296;28;20036;-64
2021/01/21 06:39:02;;;;;;;2.85;0.82;;;10.10;47.00;;;;;;5091201;28;20028;-64
2021/01/21 06:41:32;;;;;;;4.50;0.80;;;10.10;47.00;;;;;;5092552;28;20035;-64
2021/01/21 06:43:58;;;;;;;5.97;0.60;;;10.10;47.40;;;;;;5091635;28;20020;-64
2021/01/21 06:46:26;;;;;;;2.55;0.75;;;10.10;47.40;;;;;;5091981;28;20032;-65
2021/01/21 06:48:51;;;;;;;2.70;0.75;;;10.10;47.80;;;;;;5091827;28;20039;-67
2021/01/21 06:51:19;;;;;;;4.38;0.70;;;10.10;47.90;;;;;;5092000;28;20044;-66
2021/01/21 06:53:50;;;;;;;1.30;0.45;;;10.10;48.10;;;;;;5095540;28;20109;-67
2021/01/21 06:56:16;;;;;;;2.45;0.70;;;10.20;48.40;;;;;;5092878;28;20134;-65
2021/01/21 06:58:46;;;;;;;3.97;0.82;;;10.20;48.90;;;;;;5093923;28;20099;-63
2021/01/21 07:01:30;;;;;;;;;;;10.20;49.10;;;;;;5091502;28;20036;-63
2021/01/21 07:04:18;;;;;;;0.82;0.50;;;10.20;49.20;;;;;;5092995;28;20261;-62
2021/01/21 07:06:53;;;;;;;1.63;0.60;;;10.20;50.00;;;;;;5089656;28;20796;-63
2021/01/21 07:09:25;;;;;;;1.35;0.70;;;10.20;50.60;;;;;;5091006;28;20045;-63
2021/01/21 07:11:54;;;;;;;5.32;1.00;;;10.30;52.50;;;;;;5085105;28;20351;-66
2021/01/21 07:14:26;;;;;;;5.00;0.50;;;10.20;52.90;;;;;;5088655;28;20031;-63
2021/01/21 07:17:05;;;;;;;1.90;0.80;;;10.30;54.00;;;;;;5090965;28;20044;-64
2021/01/21 07:19:48;;;;;;;1.67;0.70;;;10.30;54.90;;;;;;5092017;28;20031;-63
2021/01/21 07:22:24;;;;;;;2.70;1.02;;;10.30;56.00;;;;;;5089965;28;20077;-62
2021/01/21 07:24:56;;;;;;;1.15;0.60;;;10.30;57.00;;;;;;5092527;28;20028;-65
2021/01/21 07:27:28;;;;;;;1.13;0.60;;;10.20;58.10;;;;;;5089420;28;20444;-62
2021/01/21 07:30:22;;;;;;;2.58;0.93;;;10.20;58.60;;;;;;5093198;28;20028;-63
2021/01/21 07:32:48;;;;;;;4.45;0.70;;;10.10;59.70;;;;;;5089237;28;20107;-64
2021/01/21 07:35:39;;;;;;;2.28;0.70;;;10.10;60.20;;;;;;5090201;28;20028;-63
2021/01/21 07:38:05;;;;;;;4.25;0.65;;;10.10;60.70;;;;;;5082406;28;20044;-63
2021/01/21 07:40:49;;;;;;;4.07;0.52;;;10.00;60.80;;;;;;5094465;28;20038;-63
2021/01/21 07:43:15;;;;;;;5.63;0.70;;;10.00;61.60;;;;;;5089266;28;20034;-64
2021/01/21 07:45:44;;;;;;;3.40;0.85;;;10.10;61.40;;;;;;5090147;28;20019;-66
2021/01/21 07:48:21;;;;;;;2.80;0.73;;;10.10;61.40;;;;;;5089572;28;20055;-66
2021/01/21 07:50:48;;;;;;;1.20;0.57;;;10.10;61.30;;;;;;5089463;28;20031;-63
2021/01/21 07:53:18;;;;;;;2.42;0.88;;;10.20;61.20;;;;;;5090284;28;20077;-63
2021/01/21 07:55:46;;;;;;;0.80;0.65;;;10.20;61.10;;;;;;5090884;28;20024;-61
2021/01/21 07:58:35;;;;;;;2.25;0.85;;;10.30;61.40;;;;;;5092743;28;20048;-62
2021/01/21 08:01:09;;;;;;;3.97;0.70;;;10.30;60.90;;;;;;5091043;28;20040;-63
2021/01/21 08:03:39;;;;;;;7.63;0.60;;;10.30;61.10;;;;;;5096529;28;20023;-62
2021/01/21 08:06:13;;;;;;;4.05;0.70;;;10.30;61.10;;;;;;5109782;28;20785;-64
2021/01/21 08:08:41;;;;;;;1.10;0.65;;;10.30;61.10;;;;;;5098298;28;20047;-62
2021/01/21 08:11:14;;;;;;;0.65;0.50;;;10.30;61.30;;;;;;5108826;28;20564;-62
2021/01/21 08:13:41;;;;;;;2.15;0.40;;;10.30;61.30;;;;;;5108711;28;20039;-62
2021/01/21 08:16:11;;;;;;;0.50;0.40;;;10.40;61.20;;;;;;5112386;28;20027;-62
2021/01/21 08:18:37;;;;;;;3.50;0.75;;;10.40;61.10;;;;;;5107838;28;20480;-63
2021/01/21 08:21:19;;;;;;;2.15;0.40;;;10.50;61.10;;;;;;5104303;28;20024;-63
2021/01/21 08:23:57;;;;;;;2.38;0.55;;;10.60;60.80;;;;;;5092917;28;20031;-63
2021/01/21 08:26:30;;;;;;;1.85;0.47;;;10.60;60.70;;;;;;5087135;28;20071;-61
2021/01/21 08:28:57;;;;;;;2.25;0.50;;;10.70;60.80;;;;;;5109121;28;20388;-62
2021/01/21 08:31:44;;;;;;;1.77;1.35;;;10.70;60.90;;;;;;5107783;28;20055;-61
2021/01/21 08:34:30;;;;;;;1.63;0.40;;;10.80;61.00;;;;;;5096295;28;20027;-62
2021/01/21 08:37:03;;;;;;;0.73;0.40;;;10.80;61.20;;;;;;5111933;28;20040;-62
2021/01/21 08:39:30;;;;;;;2.53;0.32;;;10.90;61.50;;;;;;5099395;28;20028;-64
2021/01/21 08:41:56;;;;;;;2.28;0.50;;;10.80;61.50;;;;;;5090556;28;20035;-64
2021/01/21 08:44:22;;;;;;;0.80;0.40;;;10.80;61.60;;;;;;5092134;28;20149;-66
2021/01/21 08:47:18;;;;;;;0.80;0.55;;;10.80;62.10;;;;;;5093750;28;20049;-65
2021/01/21 08:50:02;;;;;;;0.52;0.40;;;10.90;62.10;;;;;;5086466;28;20036;-62
2021/01/21 08:52:28;;;;;;;0.70;0.50;;;10.90;62.20;;;;;;5100259;28;20048;-62
2021/01/21 08:54:54;;;;;;;1.67;0.55;;;10.90;62.00;;;;;;5100810;28;20019;-67
2021/01/21 08:57:22;;;;;;;2.05;0.50;;;11.00;61.80;;;;;;5106768;28;20027;-62
2021/01/21 08:59:47;;;;;;;0.98;0.40;;;11.10;61.80;;;;;;5112087;28;20098;-63
2021/01/21 09:02:13;;;;;;;4.03;0.40;;;11.00;61.60;;;;;;5091659;28;20863;-68
2021/01/21 09:04:41;;;;;;;3.35;0.40;;;11.00;61.60;;;;;;5109139;28;20030;-68
2021/01/21 09:07:09;;;;;;;1.15;0.63;;;11.10;61.60;;;;;;5100107;28;20035;-72
2021/01/21 09:09:37;;;;;;;1.10;0.40;;;11.10;61.60;;;;;;5100711;28;20071;-68
2021/01/21 09:12:13;;;;;;;4.03;0.57;;;11.10;61.60;;;;;;5090954;28;20039;-70
2021/01/21 09:14:39;;;;;;;1.23;0.68;;;11.20;61.50;;;;;;5096656;28;20165;-72
2021/01/21 09:17:13;;;;;;;1.02;0.30;;;11.20;61.40;;;;;;5103087;28;20486;-72
2021/01/21 09:19:44;;;;;;;0.63;0.50;;;11.30;61.00;;;;;;5099236;28;20032;-72
2021/01/21 09:22:14;;;;;;;2.20;0.57;;;11.40;60.90;;;;;;5095230;28;20169;-72
2021/01/21 09:25:02;;;;;;;1.30;0.40;;;11.40;60.90;;;;;;5107437;28;20381;-73
2021/01/21 09:27:30;;;;;;;2.10;0.57;;;11.50;60.70;;;;;;5112089;28;20024;-71
2021/01/21 09:30:00;;;;;;;1.10;0.47;;;11.60;60.70;;;;;;5096286;28;20115;-67
2021/01/21 09:32:28;;;;;;;0.70;0.45;;;11.60;60.50;;;;;;5092007;28;20032;-67
2021/01/21 09:35:07;;;;;;;1.38;0.50;;;11.60;60.60;;;;;;5089138;28;20056;-69
2021/01/21 09:37:37;;;;;;;0.65;0.47;;;11.60;60.70;;;;;;5096321;28;20533;-66
2021/01/21 09:40:15;;;;;;;4.55;0.60;;;11.60;60.70;;;;;;5092995;28;20032;-69
2021/01/21 09:42:41;;;;;;;3.80;0.98;;;11.50;61.20;;;;;;5091736;28;20031;-64
2021/01/21 09:45:09;;;;;;;1.95;0.65;;;11.50;61.30;;;;;;5110265;28;20020;-63
2021/01/21 09:47:35;;;;;;;3.65;0.88;;;11.50;61.60;;;;;;5102201;28;20020;-61
2021/01/21 09:50:01;;;;;;;0.90;0.40;;;11.50;61.70;;;;;;5090198;28;20094;-62
2021/01/21 09:52:27;;;;;;;2.45;0.60;;;11.50;61.90;;;;;;5091270;28;20115;-62
2021/01/21 09:54:53;;;;;;;1.95;0.70;;;11.60;61.90;;;;;;5090905;28;20225;-65
2021/01/21 09:57:18;;;;;;;0.70;0.57;;;11.60;62.00;;;;;;5110392;28;20030;-62
2021/01/21 09:59:44;;;;;;;2.35;0.45;;;11.60;61.90;;;;;;5111184;28;20035;-73
2021/01/21 10:02:10;;;;;;;1.05;0.50;;;11.70;62.10;;;;;;5111069;28;20024;-62
2021/01/21 10:04:38;;;;;;;0.30;0.30;;;11.80;61.70;;;;;;5111411;28;20056;-62
2021/01/21 10:07:05;;;;;;;4.10;0.60;;;11.80;61.70;;;;;;5094731;28;20024;-61
2021/01/21 10:09:31;;;;;;;0.65;0.43;;;11.80;61.50;;;;;;5090740;28;20075;-61
2021/01/21 10:11:57;;;;;;;1.75;0.63;;;11.80;61.40;;;;;;5089686;28;20103;-61
2021/01/21 10:14:23;;;;;;;0.75;0.50;;;12.00;61.40;;;;;;5089912;28;20123;-61
2021/01/21 10:16:48;;;;;;;0.63;0.45;;;12.00;61.40;;;;;;5090923;28;20043;-61
2021/01/21 10:19:14;;;;;;;1.50;0.50;;;12.00;61.30;;;;;;5090577;28;20024;-61
2021/01/21 10:21:40;;;;;;;1.17;0.40;;;12.00;61.10;;;;;;5091093;28;20028;-61
2021/01/21 10:24:06;;;;;;;1.58;0.50;;;12.10;61.00;;;;;;5090476;28;20481;-61
2021/01/21 10:26:32;;;;;;;1.85;0.50;;;12.20;60.80;;;;;;5090734;28;20035;-61
2021/01/21 10:28:57;;;;;;;1.35;0.60;;;12.20;61.00;;;;;;5090087;28;20463;-61
2021/01/21 10:31:23;;;;;;;3.20;0.70;;;12.30;60.90;;;;;;5090762;28;20052;-61
2021/01/21 10:33:49;;;;;;;0.80;0.47;;;12.50;60.20;;;;;;5090828;28;20066;-61
2021/01/21 10:36:14;;;;;;;0.85;0.40;;;12.70;59.60;;;;;;5091475;28;20475;-63
2021/01/21 10:38:40;;;;;;;2.75;0.68;;;12.80;59.20;;;;;;5094782;28;20074;-70
2021/01/21 10:41:09;;;;;;;2.95;0.80;;;12.80;59.50;;;;;;5093506;28;20035;-61
2021/01/21 10:43:35;;;;;;;0.73;0.60;;;12.80;59.80;;;;;;5094376;28;20031;-61
2021/01/21 10:46:01;;;;;;;4.03;1.10;;;12.80;59.80;;;;;;5093830;28;20020;-62
2021/01/21 10:48:27;;;;;;;1.23;1.10;;;12.80;59.40;;;;;;5089582;28;20854;-61
2021/01/21 10:50:53;;;;;;;3.80;0.80;;;12.80;59.40;;;;;;5089802;28;20036;-63
2021/01/21 10:53:18;;;;;;;3.22;0.98;;;12.70;59.40;;;;;;5091794;28;20093;-62
2021/01/21 10:55:44;;;;;;;1.20;0.73;;;12.70;59.20;;;;;;5093764;28;20426;-62
2021/01/21 10:58:10;;;;;;;1.00;0.90;;;12.70;60.90;;;;;;5092798;28;20028;-62
2021/01/21 11:00:36;;;;;;;2.10;0.70;;;12.60;61.20;;;;;;5093076;28;20170;-61
2021/01/21 11:03:03;;;;;;;1.20;0.60;;;12.50;62.20;;;;;;5093148;28;20028;-62
2021/01/21 11:05:29;;;;;;;1.23;0.70;;;12.40;62.60;;;;;;5094002;28;20494;-64
2021/01/21 11:07:54;;;;;;;3.20;1.10;;;12.50;62.10;;;;;;5093164;28;20052;-63
2021/01/21 11:10:20;;;;;;;1.45;0.52;;;12.40;62.20;;;;;;5088642;28;20534;-62
2021/01/21 11:12:50;;;;;;;1.42;0.80;;;12.50;62.20;;;;;;5092586;28;20135;-63
2021/01/21 11:15:18;;;;;;;1.35;0.50;;;12.50;61.90;;;;;;5093615;28;20028;-62
2021/01/21 11:17:47;;;;;;;1.83;0.88;;;12.70;61.60;;;;;;5093330;28;20385;-62
2021/01/21 11:20:14;;;;;;;2.35;0.52;;;12.80;61.50;;;;;;5088296;28;20116;-62
2021/01/21 11:22:41;;;;;;;1.85;0.90;;;12.80;61.50;;;;;;5093474;28;20032;-62
2021/01/21 11:25:08;;;;;;;1.95;0.77;;;12.80;61.60;;;;;;5092454;28;20073;-62
2021/01/21 11:27:38;;;;;;;2.40;0.80;;;12.70;61.60;;;;;;5093341;28;20036;-62
2021/01/21 11:30:06;;;;;;;1.88;0.70;;;12.70;61.80;;;;;;5092190;28;20105;-62
2021/01/21 11:32:32;;;;;;;1.08;0.60;;;12.70;61.80;;;;;;5093389;28;20032;-62
2021/01/21 11:34:58;;;;;;;4.45;0.90;;;12.60;61.70;;;;;;5092948;28;20089;-63
2021/01/21 11:37:24;;;;;;;6.55;0.80;;;12.60;61.70;;;;;;5093216;28;20024;-62
2021/01/21 11:39:50;;;;;;;5.15;0.80;;;12.70;61.40;;;;;;5092808;28;20496;-64
2021/01/21 11:42:15;;;;;;;4.18;0.70;;;12.70;61.00;;;;;;5092276;28;20447;-62
2021/01/21 11:44:44;;;;;;;1.30;0.80;;;12.70;61.20;;;;;;5093373;28;20031;-62
2021/01/21 11:47:09;;;;;;;3.92;0.95;;;12.70;61.30;;;;;;5090886;28;20024;-62
2021/01/21 11:49:35;;;;;;;9.23;0.85;;;12.70;60.90;;;;;;5091608;28;20751;-62
2021/01/21 11:52:01;;;;;;;7.00;1.00;;;12.60;60.80;;;;;;5091902;28;20028;-62
2021/01/21 11:54:27;;;;;;;5.25;0.82;;;12.60;60.90;;;;;;5092896;28;20459;-63
2021/01/21 11:56:52;;;;;;;3.72;1.00;;;12.60;61.20;;;;;;5092690;28;20465;-63
2021/01/21 11:59:18;;;;;;;3.78;0.77;;;12.60;60.80;;;;;;5092285;28;20017;-62
2021/01/21 12:01:44;;;;;;;4.55;0.85;;;12.60;60.90;;;;;;5092941;28;20032;-62
2021/01/21 12:04:10;;;;;;;8.27;1.00;;;12.60;61.20;;;;;;5091970;28;20170;-63
2021/01/21 12:06:36;;;;;;;4.10;0.93;;;12.60;60.70;;;;;;5092784;28;20185;-63
2021/01/21 12:09:03;;;;;;;4.65;0.82;;;12.70;60.50;;;;;;5086451;28;20540;-63
2021/01/21 12:11:29;;;;;;;5.07;0.80;;;12.70;60.60;;;;;;5092601;28;20030;-62
2021/01/21 12:13:55;;;;;;;5.50;0.93;;;12.70;60.50;;;;;;5091157;28;20032;-63
2021/01/21 12:16:21;;;;;;;11.73;0.98;;;12.80;60.40;;;;;;5092581;28;20035;-63
2021/01/21 12:18:47;;;;;;;7.68;1.17;;;12.90;60.20;;;;;;5092574;28;20028;-63
2021/01/21 12:21:13;;;;;;;10.82;1.27;;;13.00;59.90;;;;;;5091791;28;20043;-63
2021/01/21 12:23:38;;;;;;;10.25;1.00;;;13.00;60.00;;;;;;5091097;28;20028;-62
2021/01/21 12:26:06;;;;;;;3.08;0.98;;;13.10;59.80;;;;;;5091871;28;20052;-63
2021/01/21 12:28:35;;;;;;;3.35;0.90;;;13.20;59.30;;;;;;5090544;28;20081;-62
2021/01/21 12:31:01;;;;;;;1.10;0.90;;;13.30;59.20;;;;;;5089960;28;20082;-63
2021/01/21 12:33:27;;;;;;;4.88;1.10;;;13.30;58.90;;;;;;5091846;28;20046;-63
2021/01/21 12:35:53;;;;;;;5.40;0.75;;;13.30;58.90;;;;;;5091578;28;20107;-65
2021/01/21 12:38:19;;;;;;;4.18;1.02;;;13.40;58.50;;;;;;5091996;28;20028;-63
2021/01/21 12:40:44;;;;;;;3.90;1.33;;;13.50;58.80;;;;;;5091570;28;20085;-63
2021/01/21 12:43:10;;;;;;;2.78;1.10;;;13.60;58.70;;;;;;5090912;28;20469;-62
2021/01/21 12:45:36;;;;;;;8.30;0.73;;;13.60;58.00;;;;;;5091792;28;20038;-63
2021/01/21 12:48:02;;;;;;;2.00;0.55;;;13.60;58.50;;;;;;5091046;28;20039;-63
2021/01/21 12:50:28;;;;;;;3.33;1.00;;;13.60;58.80;;;;;;5091724;28;20028;-62
2021/01/21 12:52:53;;;;;;;1.35;0.50;;;13.50;60.00;;;;;;5091356;28;20028;-65
2021/01/21 12:55:19;;;;;;;0.68;0.40;;;13.40;60.30;;;;;;5091669;28;20028;-62
2021/01/21 12:57:44;;;;;;;1.00;0.60;;;13.30;60.70;;;;;;5091808;28;20412;-63
2021/01/21 13:00:11;;;;;;;1.23;0.60;;;13.20;61.70;;;;;;5089270;28;20110;-63